Time;durP1;ratioP1;P1;durP2;ratioP2;P2;SDS_P1;SDS_P2;PMS_P1;PMS_P2;Temp;Humidity;BMP_temperature;BMP_pressure;BME280_temperature;BME280_humidity;BME280_pressure;Samples;Min_cycle;Max_cycle;Signal;HPM_P1;HPM_P2
2022/11/29 00:02:54;;;;;;;77.03;43.02;;;;;;;2.39;78.06;100569.95;2080542;85;30996;-65
2022/11/29 00:05:56;;;;;;;80.15;41.98;;;;;;;2.36;77.98;100577.48;2080627;85;32965;-66
2022/11/29 00:09:01;;;;;;;72.82;40.58;;;;;;;2.34;78.01;100573.09;2080525;85;29333;-66
2022/11/29 00:12:11;;;;;;;69.82;38.70;;;;;;;2.30;77.97;100570.94;2080562;85;27655;-67
2022/11/29 00:15:14;;;;;;;75.30;41.90;;;;;;;2.24;77.98;100569.67;2080786;85;28657;-66
2022/11/29 00:18:15;;;;;;;75.17;39.55;;;;;;;2.17;77.96;100568.86;2080428;85;31040;-66
2022/11/29 00:21:17;;;;;;;72.85;40.48;;;;;;;2.14;78.00;100572.89;2075655;85;32953;-66
2022/11/29 00:24:18;;;;;;;72.78;38.73;;;;;;;2.12;78.03;100572.02;2080449;85;30104;-65
2022/11/29 00:27:20;;;;;;;76.15;42.75;;;;;;;2.07;78.04;100564.58;2080238;85;28312;-65
2022/11/29 00:30:21;;;;;;;69.82;38.73;;;;;;;2.04;78.14;100578.70;2080536;85;28710;-65
2022/11/29 00:33:23;;;;;;;68.90;37.38;;;;;;;2.02;78.13;100576.95;2080529;85;31000;-65
2022/11/29 00:36:24;;;;;;;76.55;37.93;;;;;;;;;;2080544;85;32954;-65
2022/11/29 00:39:26;;;;;;;70.10;38.95;;;;;;;1.96;78.24;100574.82;2082614;84;29341;-65
2022/11/29 00:42:27;;;;;;;68.78;37.60;;;;;;;1.98;78.40;100573.47;2086106;85;27631;-66
2022/11/29 00:45:28;;;;;;;70.30;37.48;;;;;;;2.00;78.34;100573.02;2085901;85;29515;-66
2022/11/29 00:48:29;;;;;;;68.20;38.35;;;;;;;1.98;78.31;100570.83;2085618;85;31014;-65
2022/11/29 00:51:31;;;;;;;72.35;39.90;;;;;;;1.98;78.45;100572.15;2020783;88;33039;-65
2022/11/29 00:54:33;;;;;;;74.37;39.55;;;;;;;2.00;78.44;100569.05;2006662;88;29369;-65
2022/11/29 00:57:34;;;;;;;77.45;40.65;;;;;;;1.99;78.39;100565.12;2018495;88;27760;-65
2022/11/29 01:00:35;;;;;;;67.70;37.55;;;;;;;1.97;78.24;100574.36;2037610;87;28720;-66
2022/11/29 01:03:36;;;;;;;73.65;40.23;;;;;;;1.91;78.31;100563.41;2037641;87;30982;-65
2022/11/29 01:06:38;;;;;;;74.40;39.08;;;;;;;1.90;78.28;100566.08;2037532;87;33726;-66
2022/11/29 01:09:39;;;;;;;67.45;37.33;;;;;;;1.88;78.43;100565.22;2037582;87;29337;-66
2022/11/29 01:12:40;;;;;;;71.05;39.67;;;;;;;1.86;78.42;100563.89;2037622;87;27757;-65
2022/11/29 01:15:41;;;;;;;70.75;40.23;;;;;;;1.85;78.45;100560.81;2037639;87;28662;-66
2022/11/29 01:18:43;;;;;;;69.42;38.90;;;;;;;1.85;78.43;100563.91;2038893;86;31098;-65
2022/11/29 01:21:44;;;;;;;68.95;39.63;;;;;;;1.80;78.37;100563.97;2046112;87;32143;-65
2022/11/29 01:24:46;;;;;;;73.62;39.23;;;;;;;1.76;78.50;100566.20;2054150;86;29343;-66
2022/11/29 01:27:47;;;;;;;74.77;41.02;;;;;;;1.73;78.59;100563.15;2053917;86;27760;-66
2022/11/29 01:30:49;;;;;;;72.67;40.73;;;;;;;1.74;78.69;100567.97;2054137;86;28694;-66
2022/11/29 01:33:56;;;;;;;76.53;40.38;;;;;;;1.73;78.68;100568.44;2054025;86;31031;-66
2022/11/29 01:36:57;;;;;;;70.65;39.80;;;;;;;1.75;78.80;100566.63;2053821;86;32497;-65
2022/11/29 01:39:59;;;;;;;76.00;42.67;;;;;;;1.79;78.85;100568.81;2054067;86;29981;-66
2022/11/29 01:43:00;;;;;;;76.17;40.05;;;;;;;1.80;78.93;100563.51;2053837;86;27735;-65
2022/11/29 01:46:02;;;;;;;71.17;39.30;;;;;;;1.85;78.98;100567.88;2053808;86;28653;-65
2022/11/29 01:49:11;;;;;;;70.78;37.95;;;;;;;1.87;78.94;100563.00;2053618;86;31030;-65
2022/11/29 01:52:27;;;;;;;73.70;38.85;;;;;;;1.87;78.82;100570.92;2053252;86;33642;-65
2022/11/29 01:55:29;;;;;;;70.12;39.88;;;;;;;1.88;78.88;100566.53;2053223;86;30275;-66
2022/11/29 01:58:31;;;;;;;64.92;37.50;;;;;;;1.91;79.01;100568.69;2053672;86;27693;-65
2022/11/29 02:01:33;;;;;;;67.30;36.55;;;;;;;1.92;78.92;100561.20;2053376;86;28687;-65
2022/11/29 02:04:36;;;;;;;70.95;37.63;;;;;;;1.94;79.02;100568.67;2053488;86;30894;-65
2022/11/29 02:07:37;;;;;;;67.60;37.08;;;;;;;1.95;78.94;100559.86;2053574;86;33012;-66
2022/11/29 02:11:11;;;;;;;65.87;36.63;;;;;;;1.93;78.82;100560.31;2053199;86;28722;-66
2022/11/29 02:14:26;;;;;;;57.85;32.85;;;;;;;1.94;78.92;100564.70;2052829;86;27734;-65
2022/11/29 02:18:05;;;;;;;63.60;35.65;;;;;;;1.95;78.88;100561.61;2053617;86;29570;-66
2022/11/29 02:21:18;;;;;;;66.33;35.13;;;;;;;1.92;78.87;100562.52;2053481;86;31087;-65
2022/11/29 02:24:45;;;;;;;64.53;35.28;;;;;;;1.95;79.03;100563.82;2053590;86;33068;-65
2022/11/29 02:27:55;;;;;;;68.02;37.50;;;;;;;1.98;79.08;100558.94;2053086;86;29517;-65
2022/11/29 02:31:32;;;;;;;61.05;35.23;;;;;;;1.97;78.99;100563.79;2053387;86;27691;-65
2022/11/29 02:35:28;;;;;;;63.25;34.88;;;;;;;1.97;78.99;100564.68;2019666;88;28797;-66
2022/11/29 02:38:38;;;;;;;62.27;34.37;;;;;;;1.97;78.90;100566.43;2053729;86;31059;-66
2022/11/29 02:42:06;;;;;;;68.05;35.78;;;;;;;1.97;78.96;100565.11;2046208;86;32990;-65
2022/11/29 02:45:38;;;;;;;63.70;35.38;;;;;;;1.97;79.02;100568.64;2045184;86;30158;-65
2022/11/29 02:49:09;;;;;;;65.97;35.25;;;;;;;1.94;78.80;100561.17;2046198;87;27727;-65
2022/11/29 02:52:30;;;;;;;60.92;33.45;;;;;;;1.92;78.89;100563.84;2034788;87;29437;-65
2022/11/29 02:55:49;;;;;;;63.85;34.70;;;;;;;1.92;78.96;100568.23;2011456;88;31878;-65
2022/11/29 02:59:31;;;;;;;60.28;33.80;;;;;;;1.96;79.09;100573.92;1982151;89;33006;-65
2022/11/29 03:02:44;;;;;;;62.70;31.37;;;;;;;1.96;79.03;100575.25;1983490;89;29342;-65
2022/11/29 03:06:27;;;;;;;59.33;33.80;;;;;;;1.93;78.84;100583.20;1988860;88;27761;-65
2022/11/29 03:09:37;;;;;;;60.15;31.80;;;;;;;1.91;79.05;100581.01;1982705;89;28754;-65
2022/11/29 03:12:47;;;;;;;52.73;29.92;;;;;;;1.92;79.06;100588.94;1977119;90;31263;-66
2022/11/29 03:16:19;;;;;;;58.05;31.57;;;;;;;1.94;79.18;100587.16;1977214;90;33755;-65
2022/11/29 03:19:42;;;;;;;54.27;29.72;;;;;;;1.98;79.25;100591.97;1977306;90;30476;-66
2022/11/29 03:23:01;;;;;;;53.83;29.37;;;;;;;2.02;79.08;100591.05;1999400;88;27735;-66
2022/11/29 03:26:15;;;;;;;54.38;29.42;;;;;;;2.03;79.08;100592.81;1977326;90;29479;-66
2022/11/29 03:29:30;;;;;;;51.70;29.70;;;;;;;2.05;79.05;100584.42;1953404;91;31026;-66
2022/11/29 03:32:52;;;;;;;;;;;;;;;2.07;79.02;100591.86;1983698;89;33017;-67
2022/11/29 03:36:14;;;;;;;52.75;30.23;;;;;;;2.07;79.02;100589.68;2006162;88;29508;-66
2022/11/29 03:39:40;;;;;;;59.33;31.23;;;;;;;2.06;79.03;100589.25;2080530;84;27643;-66
2022/11/29 03:43:12;;;;;;;56.98;30.43;;;;;;;2.06;79.07;100595.42;2086119;85;28700;-66
2022/11/29 03:46:48;;;;;;;57.35;30.17;;;;;;;2.07;79.07;100597.61;2085364;85;31086;-67
2022/11/29 03:50:07;;;;;;;57.20;30.37;;;;;;;2.09;79.10;100599.33;2085977;85;32971;-66
2022/11/29 03:53:28;;;;;;;55.20;30.48;;;;;;;2.11;79.11;100600.20;2086057;85;29380;-66
2022/11/29 03:56:39;;;;;;;55.63;31.12;;;;;;;2.14;79.14;100599.31;2064746;85;27688;-66
2022/11/29 04:00:04;;;;;;;50.78;29.23;;;;;;;2.15;79.12;100612.06;2086045;85;28743;-67
2022/11/29 04:03:37;;;;;;;51.58;29.70;;;;;;;2.18;79.12;100604.97;2086101;85;31046;-67
2022/11/29 04:07:01;;;;;;;59.55;31.07;;;;;;;2.19;79.06;100602.77;2085662;85;33132;-66
2022/11/29 04:10:44;;;;;;;52.17;29.77;;;;;;;2.19;78.93;100608.05;2085991;85;29323;-66
2022/11/29 04:14:21;;;;;;;54.73;30.43;;;;;;;2.18;79.00;100605.44;2086194;85;27656;-67
2022/11/29 04:18:00;;;;;;;54.00;30.65;;;;;;;2.18;79.00;100610.72;2086301;85;28681;-65
2022/11/29 04:21:19;;;;;;;54.60;30.15;;;;;;;2.19;78.95;100607.19;2082347;85;31048;-66
2022/11/29 04:24:29;;;;;;;57.67;31.52;;;;;;;2.20;78.99;100605.84;2006684;88;32397;-66
2022/11/29 04:27:40;;;;;;;55.67;30.17;;;;;;;2.21;78.96;100610.23;1941379;91;29342;-66
2022/11/29 04:30:50;;;;;;;57.95;31.60;;;;;;;2.23;78.99;100611.10;1946504;91;27834;-66
2022/11/29 04:34:23;;;;;;;55.30;30.92;;;;;;;2.26;78.96;100615.47;1946592;91;31265;-66
2022/11/29 04:37:52;;;;;;;56.23;30.52;;;;;;;2.26;78.95;100621.65;1946436;91;31220;-66
2022/11/29 04:41:29;;;;;;;54.03;29.92;;;;;;;2.30;78.91;100622.48;1940085;91;33184;-66
2022/11/29 04:44:47;;;;;;;51.75;29.30;;;;;;;2.28;78.75;100621.62;1934078;92;29361;-66
2022/11/29 04:48:23;;;;;;;59.80;31.42;;;;;;;2.28;78.77;100630.45;1934160;92;28477;-66
2022/11/29 04:51:32;;;;;;;59.08;34.18;;;;;;;2.26;78.71;100626.94;1935436;90;33579;-65
2022/11/29 04:54:48;;;;;;;55.12;31.93;;;;;;;2.23;78.69;100632.25;1935004;91;31792;-65
2022/11/29 04:58:01;;;;;;;60.90;34.43;;;;;;;2.23;78.76;100637.53;1938572;91;32950;-65
2022/11/29 05:01:23;;;;;;;63.10;33.75;;;;;;;2.20;78.56;100638.88;1938699;91;30158;-66
2022/11/29 05:04:47;;;;;;;56.25;32.93;;;;;;;2.17;78.70;100640.22;1975467;87;27796;-66
2022/11/29 05:08:16;;;;;;;55.95;31.55;;;;;;;2.18;78.73;100641.12;2032440;87;28685;-66
2022/11/29 05:11:41;;;;;;;56.85;32.78;;;;;;;2.20;78.86;100641.98;2032714;87;31060;-65
2022/11/29 05:15:17;;;;;;;62.57;34.03;;;;;;;2.20;78.75;100649.45;2033543;87;32977;-65
2022/11/29 05:18:48;;;;;;;55.35;30.57;;;;;;;2.20;78.78;100644.63;2032129;87;29982;-66
2022/11/29 05:22:07;;;;;;;60.52;33.28;;;;;;;2.20;78.73;100649.45;2034911;87;27676;-66
2022/11/29 05:25:38;;;;;;;58.78;31.75;;;;;;;2.20;78.76;100653.87;2037941;87;28677;-66
2022/11/29 05:29:01;;;;;;;59.00;33.48;;;;;;;2.21;78.84;100652.53;2060447;86;31629;-67
2022/11/29 05:32:10;;;;;;;62.65;34.85;;;;;;;2.21;78.73;100652.53;2060564;85;33072;-67
2022/11/29 05:35:37;;;;;;;58.40;32.67;;;;;;;2.20;78.76;100649.91;2073622;85;28969;-66
2022/11/29 05:38:53;;;;;;;54.83;32.17;;;;;;;2.21;78.70;100650.34;2074513;85;27549;-67
2022/11/29 05:42:19;;;;;;;58.98;34.67;;;;;;;2.20;78.65;100656.52;2083243;85;29599;-67
2022/11/29 05:45:40;;;;;;;63.48;35.40;;;;;;;2.20;78.75;100663.13;2088515;84;31137;-66
2022/11/29 05:49:20;;;;;;;64.05;37.30;;;;;;;2.21;78.72;100670.17;2088383;85;33107;-66
2022/11/29 05:52:48;;;;;;;64.40;34.58;;;;;;;2.21;78.73;100665.74;2088162;85;29327;-67
2022/11/29 05:56:20;;;;;;;61.18;34.25;;;;;;;2.20;78.70;100663.13;2088543;85;27761;-66
2022/11/29 05:59:27;;;;;;;57.73;33.80;;;;;;;2.21;78.77;100670.17;2072888;85;28856;-66
2022/11/29 06:02:52;;;;;;;56.98;35.58;;;;;;;2.23;78.82;100671.03;2073222;85;31820;-67
2022/11/29 06:06:02;;;;;;;59.20;33.33;;;;;;;2.24;78.76;100669.69;2071687;85;33125;-67
2022/11/29 06:09:29;;;;;;;61.55;32.53;;;;;;;2.27;78.77;100684.20;1998550;89;29558;-67
2022/11/29 06:12:34;;;;;;;61.75;34.23;;;;;;;2.29;78.79;100681.53;2001818;88;28081;-67
2022/11/29 06:16:03;;;;;;;62.27;34.18;;;;;;;2.30;78.71;100683.28;2016104;88;29355;-67
2022/11/29 06:19:30;;;;;;;59.93;33.45;;;;;;;2.31;78.73;100686.83;1978827;89;31039;-68
2022/11/29 06:22:51;;;;;;;61.05;34.50;;;;;;;2.31;78.68;100690.33;1941777;91;33067;-68
2022/11/29 06:26:28;;;;;;;66.67;35.88;;;;;;;2.32;78.81;100702.66;1946190;91;29511;-69
2022/11/29 06:29:55;;;;;;;59.35;34.48;;;;;;;2.34;78.81;100699.56;1944990;91;28406;-68
2022/11/29 06:33:27;;;;;;;55.88;32.40;;;;;;;2.36;78.83;100701.75;1945632;91;28710;-68
2022/11/29 06:36:39;;;;;;;66.97;38.02;;;;;;;2.38;78.75;100703.05;1946766;91;31226;-67
2022/11/29 06:39:41;;;;;;;69.10;36.28;;;;;;;2.39;78.84;100706.12;1973700;90;33792;-68
2022/11/29 06:42:43;;;;;;;71.20;36.10;;;;;;;2.40;78.81;100706.09;1974641;90;29341;-67
2022/11/29 06:45:49;;;;;;;59.38;34.38;;;;;;;2.45;78.86;100715.76;1975130;90;27900;-68
2022/11/29 06:48:58;;;;;;;58.05;31.80;;;;;;;2.45;78.83;100711.36;1975427;90;28827;-68
2022/11/29 06:52:19;;;;;;;61.00;34.65;;;;;;;2.48;78.76;100711.34;1979396;89;31855;-68
2022/11/29 06:55:45;;;;;;;58.30;33.42;;;;;;;2.50;78.83;100712.17;2017669;87;32963;-68
2022/11/29 06:59:13;;;;;;;63.30;34.08;;;;;;;2.54;78.71;100717.01;2018679;88;28949;-67
2022/11/29 07:03:03;;;;;;;55.35;33.48;;;;;;;2.56;78.82;100713.91;2039822;87;27777;-68
2022/11/29 07:06:24;;;;;;;58.63;33.58;;;;;;;2.58;78.73;100712.98;2039620;87;28756;-68
2022/11/29 07:09:33;;;;;;;58.40;32.00;;;;;;;2.62;78.76;100719.12;2039723;87;31027;-68
2022/11/29 07:12:35;;;;;;;59.50;32.05;;;;;;;2.66;78.57;100721.27;2039596;87;32966;-66
2022/11/29 07:15:40;;;;;;;55.48;31.02;;;;;;;2.67;78.65;100719.95;2039631;87;29332;-68
2022/11/29 07:19:10;;;;;;;65.15;34.67;;;;;;;2.71;78.62;100720.80;2039786;87;27622;-67
2022/11/29 07:22:39;;;;;;;66.02;34.33;;;;;;;2.73;78.59;100721.20;2039401;87;28665;-68
2022/11/29 07:25:46;;;;;;;62.23;34.08;;;;;;;2.77;78.55;100732.65;2036551;87;31032;-67
2022/11/29 07:29:01;;;;;;;66.62;35.70;;;;;;;2.81;78.56;100734.80;2038870;87;33916;-67
2022/11/29 07:32:06;;;;;;;;;;;;;;;2.84;78.52;100726.84;2041937;86;28472;-67
2022/11/29 07:35:19;;;;;;;41.03;24.03;;;;;;;2.83;78.37;100719.80;2040151;87;27671;-68
2022/11/29 07:38:38;;;;;;;60.85;33.95;;;;;;;2.86;78.43;100726.38;2039527;86;29536;-65
2022/11/29 07:41:54;;;;;;;58.85;33.30;;;;;;;2.91;78.49;100727.64;1985924;89;31130;-65
2022/11/29 07:45:22;;;;;;;60.30;32.75;;;;;;;2.96;78.50;100731.13;1990197;89;33007;-65
2022/11/29 07:48:23;;;;;;;65.52;36.03;;;;;;;3.03;78.48;100732.80;1999167;89;29381;-66
2022/11/29 07:51:25;;;;;;;64.15;35.20;;;;;;;3.09;78.41;100731.84;1998949;87;27772;-65
2022/11/29 07:54:26;;;;;;;67.20;35.65;;;;;;;3.13;78.31;100732.23;1997549;89;29489;-65
2022/11/29 07:57:27;;;;;;;69.72;36.38;;;;;;;3.18;78.38;100731.75;1997510;89;31022;-66
2022/11/29 08:00:28;;;;;;;69.05;36.08;;;;;;;3.24;78.21;100740.06;1997585;89;32942;-65
2022/11/29 08:03:31;;;;;;;60.38;35.63;;;;;;;3.28;78.21;100738.67;1997633;89;29377;-66
2022/11/29 08:06:33;;;;;;;62.90;35.43;;;;;;;3.33;78.05;100734.63;1997694;89;27787;-66
2022/11/29 08:09:34;;;;;;;71.45;35.85;;;;;;;3.35;78.06;100742.11;1997629;89;28682;-65
2022/11/29 08:12:41;;;;;;;61.68;34.80;;;;;;;3.40;78.09;100742.05;1997367;89;31826;-65
2022/11/29 08:15:44;;;;;;;64.75;36.23;;;;;;;3.43;77.83;100738.94;1997500;89;33762;-66
2022/11/29 08:18:46;;;;;;;60.95;35.35;;;;;;;3.48;77.97;100741.52;1997768;89;29344;-66
2022/11/29 08:21:49;;;;;;;65.50;35.28;;;;;;;3.55;78.04;100744.53;2009100;87;27687;-66
2022/11/29 08:24:50;;;;;;;69.27;36.83;;;;;;;3.62;77.87;100743.53;2012953;88;28694;-66
2022/11/29 08:27:53;;;;;;;61.05;36.28;;;;;;;3.68;77.67;100749.65;2012937;88;31111;-66
2022/11/29 08:31:02;;;;;;;65.15;36.10;;;;;;;3.74;77.60;100744.24;2012883;88;33807;-66
2022/11/29 08:34:08;;;;;;;61.37;36.15;;;;;;;3.77;77.65;100753.05;2012926;87;29383;-67
2022/11/29 08:37:09;;;;;;;62.60;35.15;;;;;;;3.80;77.37;100753.02;2013144;87;27809;-65
2022/11/29 08:40:12;;;;;;;59.67;34.88;;;;;;;3.81;77.22;100748.57;2013035;88;28647;-66
2022/11/29 08:43:13;;;;;;;64.35;35.60;;;;;;;3.84;77.39;100757.81;2032745;87;31086;-66
2022/11/29 08:46:15;;;;;;;62.73;36.05;;;;;;;3.90;77.53;100756.84;2032303;87;33813;-66
2022/11/29 08:49:16;;;;;;;58.95;35.92;;;;;;;3.94;77.46;100757.23;2032233;87;30092;-66
2022/11/29 08:55:41;;;;;;;64.27;36.73;;;;;;;4.01;77.04;100752.70;2032229;87;28701;-66
2022/11/29 08:58:44;;;;;;;68.60;36.90;;;;;;;4.02;77.06;100755.33;2053471;86;31040;-66
2022/11/29 09:01:45;;;;;;;62.95;36.28;;;;;;;4.06;77.09;100761.45;2053159;86;32945;-65
2022/11/29 09:04:47;;;;;;;66.85;36.70;;;;;;;4.10;76.99;100760.08;2053525;86;29371;-66
2022/11/29 09:07:48;;;;;;;62.65;34.53;;;;;;;4.14;77.03;100762.69;2053567;86;27728;-66
2022/11/29 09:10:49;;;;;;;64.15;38.70;;;;;;;4.21;77.17;100763.00;2053298;86;28746;-66
2022/11/29 09:13:54;;;;;;;65.65;36.58;;;;;;;4.24;76.83;100762.48;2053450;86;31137;-66
2022/11/29 09:16:55;;;;;;;62.62;38.20;;;;;;;4.31;76.98;100763.27;2030700;86;32961;-66
2022/11/29 09:19:57;;;;;;;59.40;35.65;;;;;;;4.37;76.98;100766.29;2053450;86;30151;-66
2022/11/29 09:22:59;;;;;;;63.02;37.78;;;;;;;4.39;76.51;100769.77;2024967;85;27765;-67
2022/11/29 09:26:01;;;;;;;66.37;37.05;;;;;;;4.40;76.63;100766.22;2015139;88;28657;-66
2022/11/29 09:29:05;;;;;;;65.87;37.63;;;;;;;4.42;76.62;100764.41;2020086;87;31400;-66
2022/11/29 09:32:06;;;;;;;61.85;36.13;;;;;;;4.46;76.61;100767.45;2019919;88;32975;-66
2022/11/29 09:35:08;;;;;;;65.80;38.90;;;;;;;4.53;76.78;100769.11;1986328;89;29365;-66
2022/11/29 09:38:13;;;;;;;67.35;38.13;;;;;;;4.58;76.66;100770.78;1986344;89;27714;-66
2022/11/29 09:41:36;;;;;;;;;;;;;;;4.61;76.38;100765.00;2022416;87;28883;-67
2022/11/29 09:44:55;;;;;;;57.33;34.13;;;;;;;4.67;76.57;100769.31;2020227;88;31888;-66
2022/11/29 09:48:05;;;;;;;66.17;35.90;;;;;;;4.72;76.41;100771.42;2019830;88;33014;-66
2022/11/29 09:51:15;;;;;;;65.87;36.63;;;;;;;4.70;76.20;100766.15;2031636;86;29281;-67
2022/11/29 09:54:29;;;;;;;60.78;36.75;;;;;;;4.70;76.04;100762.17;2020478;87;27601;-67
2022/11/29 09:57:31;;;;;;;68.65;38.98;;;;;;;4.73;76.11;100762.55;2018412;87;28916;-66
2022/11/29 10:00:36;;;;;;;63.58;35.92;;;;;;;4.78;76.32;100764.69;2020292;88;31023;-67
2022/11/29 10:03:43;;;;;;;;;;;;;;;4.81;75.95;100764.63;2022769;88;32982;-66
2022/11/29 10:06:54;;;;;;;60.55;35.80;;;;;;;4.83;76.05;100769.91;2020358;88;30120;-67
2022/11/29 10:10:02;;;;;;;58.73;36.25;;;;;;;4.84;75.98;100770.33;2025998;86;27659;-67
2022/11/29 10:13:22;;;;;;;62.75;36.75;;;;;;;4.87;75.99;100772.93;2054721;85;28774;-66
2022/11/29 10:16:31;;;;;;;71.02;38.00;;;;;;;4.91;75.81;100773.30;2058459;85;31128;-66
2022/11/29 10:19:49;;;;;;;62.30;36.30;;;;;;;4.94;76.04;100772.36;2064816;85;32973;-66
2022/11/29 10:23:07;;;;;;;70.52;37.53;;;;;;;5.00;76.02;100770.93;2020400;88;31278;-66
2022/11/29 10:26:11;;;;;;;63.63;36.93;;;;;;;5.05;76.00;100769.51;1951523;91;28346;-66
2022/11/29 10:29:14;;;;;;;60.38;35.48;;;;;;;5.09;75.68;100772.06;1961708;89;29503;-66
2022/11/29 10:32:19;;;;;;;59.60;33.33;;;;;;;5.12;75.97;100770.69;1978099;90;31046;-67
2022/11/29 10:35:21;;;;;;;56.85;33.65;;;;;;;5.21;75.64;100770.10;1978209;89;33302;-67
2022/11/29 10:38:25;;;;;;;58.92;35.92;;;;;;;5.26;75.58;100764.22;1978309;90;29338;-66
2022/11/29 10:41:26;;;;;;;61.73;35.60;;;;;;;5.29;75.37;100762.84;1976020;90;28142;-67
2022/11/29 10:44:28;;;;;;;59.45;34.55;;;;;;;5.35;75.59;100768.04;1953764;91;28974;-66
2022/11/29 10:47:30;;;;;;;56.77;33.10;;;;;;;5.44;75.41;100770.95;1953471;91;31175;-67
2022/11/29 10:50:34;;;;;;;71.07;41.35;;;;;;;5.48;75.17;100765.98;1953252;91;32980;-68
2022/11/29 10:53:37;;;;;;;62.38;34.18;;;;;;;5.56;75.00;100764.05;1892505;94;29397;-68
2022/11/29 10:56:40;;;;;;;57.58;33.95;;;;;;;5.62;75.04;100763.93;1921557;92;27794;-67
2022/11/29 10:59:41;;;;;;;62.93;35.20;;;;;;;5.70;75.09;100769.08;1923075;91;29484;-64
2022/11/29 11:02:42;;;;;;;56.70;33.88;;;;;;;5.75;74.63;100772.48;1955996;88;31035;-66
2022/11/29 11:06:00;;;;;;;60.63;34.50;;;;;;;5.82;74.56;100760.40;2020343;88;33018;-65
2022/11/29 11:09:27;;;;;;;59.58;33.83;;;;;;;5.86;74.30;100762.09;2020386;88;29345;-69
2022/11/29 11:12:32;;;;;;;59.27;33.55;;;;;;;5.93;74.26;100759.25;2020082;88;27666;-64
2022/11/29 11:15:33;;;;;;;58.98;35.30;;;;;;;6.00;74.49;100759.13;2020547;88;29565;-67
2022/11/29 11:18:36;;;;;;;62.78;35.70;;;;;;;6.02;74.17;100758.20;2020319;88;31090;-66
2022/11/29 11:21:39;;;;;;;61.50;34.27;;;;;;;6.08;74.24;100751.86;2020085;88;32548;-65
2022/11/29 11:24:41;;;;;;;61.85;34.50;;;;;;;6.14;74.21;100757.01;2020368;88;29329;-67
2022/11/29 11:27:42;;;;;;;58.25;33.08;;;;;;;6.21;73.92;100756.41;1998271;88;27744;-64
2022/11/29 11:30:51;;;;;;;59.48;34.75;;;;;;;6.25;74.04;100753.23;2019833;87;28654;-63
2022/11/29 11:33:52;;;;;;;58.40;35.80;;;;;;;6.31;74.24;100754.39;2019065;87;32284;-64
2022/11/29 11:37:23;;;;;;;58.08;32.95;;;;;;;6.38;73.51;100756.00;2048512;86;33312;-62
2022/11/29 11:40:48;;;;;;;58.25;33.90;;;;;;;6.45;74.25;100758.05;2051733;86;29332;-65
2022/11/29 11:43:56;;;;;;;61.40;35.80;;;;;;;6.49;73.84;100755.27;2110326;84;28239;-63
2022/11/29 11:46:58;;;;;;;58.90;36.30;;;;;;;6.50;73.66;100756.16;2110149;84;29933;-63
2022/11/29 11:50:09;;;;;;;52.03;33.48;;;;;;;6.49;73.15;100760.59;2072916;85;31125;-63
2022/11/29 11:53:35;;;;;;;54.25;33.60;;;;;;;6.44;73.13;100761.19;2108654;84;33031;-61
2022/11/29 11:56:36;;;;;;;56.48;32.50;;;;;;;6.45;73.45;100760.72;2108316;84;31471;-63
2022/11/29 11:59:37;;;;;;;53.15;31.52;;;;;;;6.45;73.50;100757.61;2108724;84;28081;-63
2022/11/29 12:02:43;;;;;;;55.20;34.78;;;;;;;6.45;72.90;100764.70;2080217;84;30065;-64
2022/11/29 12:05:48;;;;;;;57.90;35.28;;;;;;;6.41;73.34;100770.57;2122714;82;33149;-64
2022/11/29 12:08:57;;;;;;;62.53;37.53;;;;;;;6.40;73.40;100778.14;2111984;83;36915;-67
2022/11/29 12:12:20;;;;;;;59.83;35.63;;;;;;;6.40;73.54;100775.47;2107180;83;30477;-67
2022/11/29 12:15:29;;;;;;;60.15;38.78;;;;;;;6.42;73.18;100777.65;2096611;84;27706;-65
2022/11/29 12:18:46;;;;;;;61.75;35.50;;;;;;;6.36;73.26;100779.11;2083693;85;30156;-71
2022/11/29 12:21:51;;;;;;;58.25;35.60;;;;;;;6.37;73.33;100778.20;2083857;85;31149;-67
2022/11/29 12:25:01;;;;;;;57.80;34.67;;;;;;;6.39;73.64;100783.04;2063214;85;33752;-67
2022/11/29 12:28:03;;;;;;;53.23;31.57;;;;;;;6.44;73.72;100781.59;2084326;85;29310;-68
2022/11/29 12:31:19;;;;;;;58.17;33.67;;;;;;;6.44;73.55;100775.83;2083995;85;27792;-68
2022/11/29 12:34:41;;;;;;;49.30;31.05;;;;;;;6.44;73.41;100773.60;2086861;84;28735;-67
2022/11/29 12:38:05;;;;;;;55.28;34.63;;;;;;;6.46;73.35;100778.44;2085001;85;31861;-69
2022/11/29 12:41:20;;;;;;;53.65;30.05;;;;;;;6.49;73.25;100777.03;2086594;84;32986;-67
2022/11/29 12:44:50;;;;;;;46.68;30.08;;;;;;;6.50;73.19;100774.80;2119811;83;30410;-67
2022/11/29 12:48:24;;;;;;;46.33;28.92;;;;;;;6.51;72.95;100776.07;2048616;86;27762;-69
2022/11/29 12:51:38;;;;;;;53.05;31.68;;;;;;;6.54;73.07;100777.77;2048645;85;28706;-68
2022/11/29 12:55:03;;;;;;;55.10;32.78;;;;;;;6.53;73.02;100776.05;2048705;86;31040;-67
2022/11/29 12:58:12;;;;;;;53.08;31.35;;;;;;;6.53;72.89;100780.05;2061701;85;28356;-67
2022/11/29 13:02:11;;;;;;;52.38;31.33;;;;;;;6.54;72.83;100781.77;2091302;83;29343;-68
2022/11/29 13:05:20;;;;;;;52.48;32.38;;;;;;;6.57;72.68;100784.83;2091536;85;28390;-67
2022/11/29 13:08:39;;;;;;;50.23;31.07;;;;;;;6.60;72.89;100789.61;2091397;85;28669;-67
2022/11/29 13:11:47;;;;;;;57.17;32.45;;;;;;;6.62;72.86;100792.25;2091088;84;31039;-68
2022/11/29 13:14:57;;;;;;;51.90;32.17;;;;;;;6.63;72.64;100789.98;2091433;85;33015;-67
2022/11/29 13:18:20;;;;;;;57.25;33.28;;;;;;;6.60;72.79;100793.60;2091559;85;30129;-67
2022/11/29 13:21:44;;;;;;;56.85;33.88;;;;;;;6.63;72.87;100791.30;2091809;84;27782;-67
2022/11/29 13:24:52;;;;;;;57.43;33.70;;;;;;;6.60;72.71;100794.93;2091274;85;28138;-67
2022/11/29 13:28:09;;;;;;;57.83;33.53;;;;;;;6.52;72.32;100800.92;2088495;83;31007;-66
2022/11/29 13:31:22;;;;;;;55.40;34.67;;;;;;;6.44;72.37;100802.44;2073547;85;32997;-67
2022/11/29 13:34:35;;;;;;;58.15;35.03;;;;;;;6.42;72.67;100802.04;2088565;85;29493;-67
2022/11/29 13:37:57;;;;;;;56.70;33.85;;;;;;;6.42;72.84;100807.36;2088918;85;27721;-66
2022/11/29 13:41:33;;;;;;;62.93;34.53;;;;;;;6.37;72.68;100804.81;2064934;85;28677;-67
2022/11/29 13:45:01;;;;;;;53.42;31.45;;;;;;;6.34;72.79;100810.20;2100342;84;32014;-66
2022/11/29 13:48:29;;;;;;;54.53;33.80;;;;;;;6.33;72.69;100812.45;1944142;91;32471;-67
2022/11/29 13:51:42;;;;;;;51.92;32.50;;;;;;;6.31;72.92;100818.26;1969755;89;30105;-68
2022/11/29 13:54:44;;;;;;;59.63;36.08;;;;;;;6.28;72.76;100817.02;2017107;88;27974;-67
2022/11/29 13:58:03;;;;;;;60.60;36.20;;;;;;;6.20;72.67;100819.86;2017068;88;28677;-67
2022/11/29 14:01:19;;;;;;;57.93;36.17;;;;;;;6.08;72.66;100827.19;2016132;88;31830;-67
2022/11/29 14:04:43;;;;;;;60.05;36.93;;;;;;;5.97;72.66;100829.63;2016266;88;32985;-68
2022/11/29 14:08:31;;;;;;;74.03;43.00;;;;;;;5.85;72.80;100829.47;2016856;88;29347;-67
2022/11/29 14:11:57;;;;;;;61.08;37.88;;;;;;;5.76;72.76;100836.72;2016962;88;27753;-67
2022/11/29 14:15:25;;;;;;;59.50;36.23;;;;;;;5.60;72.68;100840.16;2017294;87;28756;-67
2022/11/29 14:18:58;;;;;;;66.00;38.25;;;;;;;5.48;72.89;100841.71;2049978;84;31964;-66
2022/11/29 14:22:19;;;;;;;70.42;40.60;;;;;;;5.36;73.10;100848.17;2080219;85;33082;-67
2022/11/29 14:25:24;;;;;;;66.60;41.25;;;;;;;5.27;73.33;100857.19;2079885;85;29334;-67
2022/11/29 14:32:03;;;;;;;60.92;37.03;;;;;;;5.24;73.65;100849.27;2039490;87;28670;-68
2022/11/29 14:35:11;;;;;;;72.85;37.95;;;;;;;5.19;73.64;100857.77;1993773;89;29029;-68
2022/11/29 14:39:09;;;;;;;62.70;38.10;;;;;;;5.12;73.76;100852.16;1997962;89;28964;-69
2022/11/29 14:42:23;;;;;;;70.80;41.42;;;;;;;5.11;73.89;100851.73;1974530;88;28434;-68
2022/11/29 14:45:58;;;;;;;69.00;39.70;;;;;;;5.07;74.01;100856.66;1971001;89;27771;-69
2022/11/29 14:49:45;;;;;;;64.45;39.42;;;;;;;5.01;74.03;100858.98;1940675;91;27825;-68
2022/11/29 14:53:13;;;;;;;67.27;40.10;;;;;;;4.93;74.02;100862.20;1947062;89;30789;-67
2022/11/29 14:56:34;;;;;;;70.15;41.02;;;;;;;4.89;74.16;100864.48;1942760;89;28707;-69
2022/11/29 14:59:50;;;;;;;76.00;43.08;;;;;;;4.83;74.17;100866.80;1949318;91;28949;-69
2022/11/29 15:03:21;;;;;;;70.45;43.15;;;;;;;4.81;74.39;100865.50;1949254;91;27920;-69